createdAt,value
2022-10-22T00:01:24.883Z,1.77
2022-10-22T00:03:55.656Z,1.67
2022-10-22T00:06:26.430Z,2.20
2022-10-22T00:08:57.283Z,1.70
2022-10-22T00:11:28.320Z,1.77
2022-10-22T00:14:01.876Z,1.90
2022-10-22T00:16:32.630Z,1.90
2022-10-22T00:19:03.683Z,1.90
2022-10-22T00:21:34.778Z,2.40
2022-10-22T00:24:05.542Z,1.30
2022-10-22T00:26:36.480Z,1.70
2022-10-22T00:29:10.076Z,1.53
2022-10-22T00:31:41.112Z,2.00
2022-10-22T00:34:12.068Z,1.63
2022-10-22T00:36:45.289Z,2.00
2022-10-22T00:39:17.520Z,2.67
2022-10-22T00:41:48.759Z,2.37
2022-10-22T00:44:49.886Z,2.13
2022-10-22T00:47:26.940Z,2.57
2022-10-22T00:49:58.863Z,2.30
2022-10-22T00:52:31.579Z,2.50
2022-10-22T00:55:04.208Z,2.70
2022-10-22T00:57:39.036Z,2.47
2022-10-22T01:00:14.077Z,2.13
2022-10-22T01:02:47.991Z,2.57
2022-10-22T01:05:19.565Z,2.37
2022-10-22T01:07:52.832Z,2.10
2022-10-22T01:10:39.051Z,1.73
2022-10-22T01:13:20.287Z,2.73
2022-10-22T01:15:59.150Z,2.07
2022-10-22T01:18:40.975Z,1.97
2022-10-22T01:21:20.465Z,2.03
2022-10-22T01:24:18.007Z,2.50
2022-10-22T01:27:21.766Z,2.20
2022-10-22T01:30:00.376Z,2.67
2022-10-22T01:32:33.958Z,2.10
2022-10-22T01:35:08.971Z,2.60
2022-10-22T01:37:44.211Z,2.10
2022-10-22T01:40:17.737Z,2.30
2022-10-22T01:42:58.388Z,2.30
2022-10-22T01:45:33.016Z,2.60
2022-10-22T01:48:13.649Z,2.40
2022-10-22T01:50:58.841Z,2.60
2022-10-22T01:53:38.186Z,2.43
2022-10-22T01:56:20.002Z,2.00
2022-10-22T01:58:58.830Z,2.03
2022-10-22T02:01:40.451Z,2.10
2022-10-22T02:04:18.725Z,2.33
2022-10-22T02:06:51.750Z,1.70
2022-10-22T02:09:25.839Z,2.10
2022-10-22T02:11:59.487Z,2.10
2022-10-22T02:14:31.872Z,2.30
2022-10-22T02:17:05.869Z,2.70
2022-10-22T02:19:43.300Z,2.07
2022-10-22T02:22:14.408Z,2.03
2022-10-22T02:24:45.498Z,1.83
2022-10-22T02:27:26.009Z,1.90
2022-10-22T02:30:05.427Z,2.00
2022-10-22T02:32:44.305Z,2.27
2022-10-22T02:35:18.460Z,2.50
2022-10-22T02:37:50.361Z,2.57
2022-10-22T02:40:22.426Z,2.33
2022-10-22T02:42:55.098Z,2.07
2022-10-22T02:45:26.243Z,2.00
2022-10-22T02:48:00.400Z,2.17
2022-10-22T02:50:31.280Z,2.47
2022-10-22T02:53:05.100Z,2.00
2022-10-22T02:55:35.932Z,2.40
2022-10-22T02:58:09.712Z,2.73
2022-10-22T03:00:40.599Z,2.53
2022-10-22T03:03:14.036Z,2.17
2022-10-22T03:05:44.853Z,2.57
2022-10-22T03:08:15.666Z,1.83
2022-10-22T03:10:47.080Z,2.03
2022-10-22T03:13:18.331Z,2.07
2022-10-22T03:15:51.664Z,2.53
2022-10-22T03:18:25.052Z,2.87
2022-10-22T03:21:04.642Z,2.70
2022-10-22T03:23:35.581Z,2.20
2022-10-22T03:26:07.234Z,2.80
2022-10-22T03:28:39.457Z,3.37
2022-10-22T03:31:10.357Z,3.60
2022-10-22T03:33:43.735Z,3.73
2022-10-22T03:36:14.754Z,4.07
2022-10-22T03:38:45.585Z,4.00
2022-10-22T03:41:16.852Z,4.10
2022-10-22T03:43:51.568Z,3.70
2022-10-22T03:46:22.740Z,4.33
2022-10-22T03:48:56.565Z,3.70
2022-10-22T03:51:30.342Z,3.63
2022-10-22T03:54:01.092Z,4.10
2022-10-22T03:56:32.364Z,3.80
2022-10-22T03:59:04.227Z,3.80
2022-10-22T04:01:35.665Z,3.87
2022-10-22T04:04:09.134Z,3.90
2022-10-22T04:06:40.147Z,3.77
2022-10-22T04:09:13.571Z,3.67
2022-10-22T04:11:45.231Z,3.33
2022-10-22T04:14:21.993Z,3.67
2022-10-22T04:16:52.856Z,4.00
2022-10-22T04:19:26.719Z,4.07
2022-10-22T04:21:57.604Z,4.53
2022-10-22T04:24:32.755Z,3.80
2022-10-22T04:27:03.837Z,4.90
2022-10-22T04:29:34.552Z,3.93
2022-10-22T04:32:05.280Z,4.33
2022-10-22T04:34:38.934Z,3.30
2022-10-22T04:37:12.846Z,4.07
2022-10-22T04:39:44.194Z,4.20
2022-10-22T04:42:17.977Z,3.77
2022-10-22T04:44:50.190Z,3.70
2022-10-22T04:47:20.904Z,3.80
2022-10-22T04:49:54.239Z,4.03
2022-10-22T04:52:27.140Z,4.10
2022-10-22T04:54:57.829Z,4.33
2022-10-22T04:57:32.621Z,3.50
2022-10-22T05:00:03.482Z,3.50
2022-10-22T05:02:36.105Z,4.27
2022-10-22T05:05:09.963Z,3.70
2022-10-22T05:07:40.944Z,3.70
2022-10-22T05:10:12.815Z,3.80
2022-10-22T05:12:47.380Z,3.43
2022-10-22T05:15:18.268Z,3.60
2022-10-22T05:17:48.999Z,3.20
2022-10-22T05:20:23.994Z,3.53
2022-10-22T05:22:54.722Z,3.60
2022-10-22T05:25:26.550Z,3.50
2022-10-22T05:28:00.252Z,4.10
2022-10-22T05:30:31.294Z,4.27
2022-10-22T05:33:02.064Z,3.63
2022-10-22T05:35:36.681Z,4.20
2022-10-22T05:38:07.394Z,3.97
2022-10-22T05:40:38.138Z,4.10
2022-10-22T05:43:09.095Z,3.60
2022-10-22T05:45:43.491Z,3.83
2022-10-22T05:48:14.712Z,3.80
2022-10-22T05:50:50.863Z,3.47
2022-10-22T05:53:22.055Z,4.20
2022-10-22T05:55:57.089Z,3.90
2022-10-22T05:58:27.829Z,4.20
2022-10-22T06:01:06.173Z,4.60
2022-10-22T06:03:37.104Z,4.73
2022-10-22T06:06:20.225Z,4.63
2022-10-22T06:08:52.608Z,5.17
2022-10-22T06:11:25.082Z,4.93
2022-10-22T06:14:04.756Z,5.50
2022-10-22T06:16:35.559Z,4.83
2022-10-22T06:19:06.777Z,4.60
2022-10-22T06:21:40.866Z,4.93
2022-10-22T06:24:13.040Z,4.70
2022-10-22T06:26:45.056Z,6.03
2022-10-22T06:29:17.351Z,5.00
2022-10-22T06:31:48.143Z,5.03
2022-10-22T06:34:21.214Z,5.60
2022-10-22T06:36:55.788Z,4.90
2022-10-22T06:39:28.131Z,5.50
2022-10-22T06:42:00.670Z,5.07
2022-10-22T06:44:32.835Z,4.20
2022-10-22T06:47:03.673Z,4.10
2022-10-22T06:49:37.194Z,4.80
2022-10-22T06:52:13.791Z,5.43
2022-10-22T06:54:44.812Z,5.10
2022-10-22T06:57:15.627Z,4.67
2022-10-22T06:59:47.256Z,5.20
2022-10-22T07:02:17.987Z,6.23
2022-10-22T07:04:49.032Z,4.70
2022-10-22T07:07:22.325Z,5.30
2022-10-22T07:09:53.483Z,5.00
2022-10-22T07:12:24.379Z,5.30
2022-10-22T07:14:55.566Z,4.93
2022-10-22T07:17:28.820Z,4.30
2022-10-22T07:20:02.077Z,5.57
2022-10-22T07:22:35.524Z,4.80
2022-10-22T07:25:09.679Z,4.80
2022-10-22T07:27:42.884Z,4.90
2022-10-22T07:30:14.626Z,4.50
2022-10-22T07:32:45.670Z,4.33
2022-10-22T07:35:16.383Z,4.50
2022-10-22T07:37:49.701Z,4.57
2022-10-22T07:40:20.670Z,4.13
2022-10-22T07:42:57.057Z,4.13
2022-10-22T07:45:27.943Z,3.67
2022-10-22T07:47:59.654Z,4.10
2022-10-22T07:50:30.619Z,3.90
2022-10-22T07:53:04.037Z,3.93
2022-10-22T07:55:35.264Z,3.77
2022-10-22T07:58:06.037Z,4.20
2022-10-22T08:00:37.694Z,4.23
2022-10-22T08:03:08.651Z,3.87
2022-10-22T08:05:43.776Z,4.00
2022-10-22T08:08:18.639Z,3.60
2022-10-22T08:10:50.756Z,4.10
2022-10-22T08:13:23.366Z,3.27
2022-10-22T08:15:57.278Z,3.93
2022-10-22T08:18:29.108Z,3.70
2022-10-22T08:21:00.785Z,3.17
2022-10-22T08:23:34.401Z,3.20
2022-10-22T08:26:05.628Z,3.73
2022-10-22T08:28:37.204Z,3.50
2022-10-22T08:31:11.072Z,3.53
2022-10-22T08:33:42.488Z,3.43
2022-10-22T08:36:13.386Z,3.20
2022-10-22T08:38:46.682Z,3.00
2022-10-22T08:41:21.318Z,2.37
2022-10-22T08:44:17.633Z,3.07
2022-10-22T08:47:19.978Z,2.70
2022-10-22T08:49:57.290Z,3.00
2022-10-22T08:52:28.017Z,2.17
2022-10-22T08:55:02.736Z,2.90
2022-10-22T08:57:48.776Z,2.73
2022-10-22T09:00:30.269Z,2.63
2022-10-22T09:03:13.439Z,2.60
2022-10-22T09:05:54.863Z,2.80
2022-10-22T09:08:26.448Z,2.47
2022-10-22T09:11:04.886Z,2.60
2022-10-22T09:13:35.751Z,3.13
2022-10-22T09:16:18.577Z,3.33
2022-10-22T09:18:58.132Z,2.63
2022-10-22T09:21:35.486Z,3.03
2022-10-22T09:24:15.234Z,2.90
2022-10-22T09:26:50.652Z,2.67
2022-10-22T09:29:30.050Z,3.60
2022-10-22T09:32:00.970Z,2.50
2022-10-22T09:34:33.664Z,2.67
2022-10-22T09:37:06.472Z,2.53
2022-10-22T09:39:40.777Z,2.93
2022-10-22T09:42:21.097Z,2.50
2022-10-22T09:44:56.651Z,2.13
2022-10-22T09:48:00.572Z,2.17
2022-10-22T09:50:33.227Z,2.40
2022-10-22T09:53:08.428Z,2.60
2022-10-22T09:55:42.084Z,1.90
2022-10-22T09:58:16.885Z,2.27
2022-10-22T10:00:51.349Z,2.53
2022-10-22T10:03:24.341Z,2.40
2022-10-22T10:06:01.435Z,2.20
2022-10-22T10:08:36.015Z,2.67
2022-10-22T10:11:12.370Z,2.60
2022-10-22T10:13:54.450Z,2.60
2022-10-22T10:16:35.706Z,2.03
2022-10-22T10:19:22.861Z,2.53
2022-10-22T10:22:03.334Z,2.70
2022-10-22T10:24:43.570Z,2.47
2022-10-22T10:27:21.100Z,2.50
2022-10-22T10:30:00.024Z,2.43
2022-10-22T10:33:02.914Z,2.33
2022-10-22T10:35:52.310Z,2.37
2022-10-22T10:38:39.887Z,2.20
2022-10-22T10:41:21.483Z,1.90
2022-10-22T10:44:10.027Z,2.70
2022-10-22T10:46:52.671Z,1.80
2022-10-22T10:49:28.211Z,2.10
2022-10-22T10:52:06.080Z,2.17
2022-10-22T10:54:49.511Z,1.50
2022-10-22T10:57:34.906Z,1.80
2022-10-22T11:00:09.574Z,1.80
2022-10-22T11:03:00.590Z,2.07
2022-10-22T11:05:40.900Z,1.80
2022-10-22T11:08:16.748Z,2.40
2022-10-22T11:10:50.095Z,1.80
2022-10-22T11:13:28.867Z,2.13
2022-10-22T11:16:06.204Z,2.00
2022-10-22T11:18:44.967Z,1.97
2022-10-22T11:21:23.490Z,1.83
2022-10-22T11:23:58.873Z,1.60
2022-10-22T11:26:39.864Z,1.43
2022-10-22T11:29:18.163Z,1.80
2022-10-22T11:31:53.065Z,1.73
2022-10-22T11:34:34.647Z,1.63
2022-10-22T11:37:07.653Z,2.00
2022-10-22T11:39:43.415Z,1.90
2022-10-22T11:42:21.045Z,1.83
2022-10-22T11:45:02.898Z,1.70
2022-10-22T11:47:37.653Z,1.73
2022-10-22T11:50:26.747Z,2.10
2022-10-22T11:53:09.273Z,1.37
2022-10-22T11:55:51.826Z,1.70
2022-10-22T11:58:35.508Z,1.17
2022-10-22T12:01:26.442Z,1.67
2022-10-22T12:04:19.119Z,1.80
2022-10-22T12:07:02.414Z,2.10
2022-10-22T12:09:36.053Z,1.50
2022-10-22T12:12:16.704Z,1.30
2022-10-22T12:15:05.617Z,1.73
2022-10-22T12:17:37.956Z,1.50
2022-10-22T12:20:15.376Z,1.43
2022-10-22T12:22:49.470Z,1.40
2022-10-22T12:25:22.897Z,1.40
2022-10-22T12:28:03.448Z,1.50
2022-10-22T12:30:37.166Z,1.30
2022-10-22T12:33:10.039Z,1.40
2022-10-22T12:35:46.820Z,1.13
2022-10-22T12:38:22.686Z,1.17
2022-10-22T12:40:56.964Z,1.30
2022-10-22T12:43:29.830Z,1.23
2022-10-22T12:46:02.464Z,1.10
2022-10-22T12:48:36.348Z,1.40
2022-10-22T12:51:09.541Z,1.50
2022-10-22T12:53:49.238Z,1.20
2022-10-22T12:56:27.019Z,1.23
2022-10-22T12:59:01.499Z,1.40
2022-10-22T13:01:38.821Z,1.20
2022-10-22T13:04:22.820Z,1.10
2022-10-22T13:06:55.829Z,1.10
2022-10-22T13:09:39.697Z,1.30
2022-10-22T13:12:16.227Z,1.40
2022-10-22T13:14:48.639Z,1.30
2022-10-22T13:17:24.135Z,1.23
2022-10-22T13:20:05.403Z,2.07
2022-10-22T13:22:38.578Z,1.23
2022-10-22T13:25:28.813Z,1.10
2022-10-22T13:28:02.465Z,1.10
2022-10-22T13:30:34.823Z,1.20
2022-10-22T13:33:07.590Z,1.47
2022-10-22T13:35:40.921Z,1.53
2022-10-22T13:38:18.398Z,1.30
2022-10-22T13:40:52.516Z,1.33
2022-10-22T13:43:25.702Z,1.60
2022-10-22T13:46:00.500Z,1.80
2022-10-22T13:48:34.646Z,1.10
2022-10-22T13:51:07.013Z,1.27
2022-10-22T13:53:40.567Z,1.07
2022-10-22T13:56:32.444Z,1.23
2022-10-22T13:59:03.376Z,1.50
2022-10-22T14:01:34.143Z,1.60
2022-10-22T14:04:07.215Z,1.37
2022-10-22T14:06:38.314Z,1.10
2022-10-22T14:09:13.575Z,1.30
2022-10-22T14:11:46.930Z,0.80
2022-10-22T14:14:18.853Z,1.17
2022-10-22T14:16:50.119Z,0.80
2022-10-22T14:19:21.212Z,1.10
2022-10-22T14:21:52.155Z,0.80
2022-10-22T14:24:22.959Z,1.37
2022-10-22T14:26:56.454Z,1.17
2022-10-22T14:29:27.339Z,1.30
2022-10-22T14:31:59.611Z,1.10
2022-10-22T14:34:32.567Z,1.10
2022-10-22T14:37:03.597Z,0.87
2022-10-22T14:39:34.356Z,1.20
2022-10-22T14:42:07.964Z,1.20
2022-10-22T14:44:38.762Z,1.30
2022-10-22T14:47:09.575Z,1.73
2022-10-22T14:49:40.395Z,1.53
2022-10-22T14:52:14.178Z,1.33
2022-10-22T14:54:48.593Z,1.30
2022-10-22T14:57:22.736Z,1.87
2022-10-22T14:59:54.871Z,1.50
2022-10-22T15:02:28.188Z,1.30
2022-10-22T15:05:00.465Z,1.00
2022-10-22T15:07:31.352Z,1.10
2022-10-22T15:10:02.666Z,1.83
2022-10-22T15:12:36.662Z,1.47
2022-10-22T15:15:09.013Z,1.57
2022-10-22T15:17:40.077Z,1.33
2022-10-22T15:20:11.692Z,1.40
2022-10-22T15:22:42.916Z,1.60
2022-10-22T15:25:17.790Z,1.27
2022-10-22T15:27:52.569Z,1.40
2022-10-22T15:30:25.938Z,1.20
2022-10-22T15:32:56.700Z,1.30
2022-10-22T15:35:30.102Z,1.70
2022-10-22T15:38:00.923Z,2.10
2022-10-22T15:40:31.679Z,2.63
2022-10-22T15:43:05.064Z,2.90
2022-10-22T15:45:35.933Z,2.70
2022-10-22T15:48:07.082Z,3.17
2022-10-22T15:50:42.848Z,2.50
2022-10-22T15:53:13.608Z,2.10
2022-10-22T15:55:54.835Z,1.73
2022-10-22T15:58:28.807Z,1.77
2022-10-22T16:01:07.043Z,2.20
2022-10-22T16:03:39.008Z,1.70
2022-10-22T16:06:11.901Z,1.47
2022-10-22T16:08:42.766Z,2.10
2022-10-22T16:11:13.822Z,1.30
2022-10-22T16:13:47.272Z,1.60
2022-10-22T16:16:18.035Z,1.50
2022-10-22T16:18:48.753Z,1.70
2022-10-22T16:21:19.788Z,1.63
2022-10-22T16:23:51.262Z,1.70
2022-10-22T16:26:22.436Z,1.67
2022-10-22T16:28:55.909Z,1.87
2022-10-22T16:31:31.591Z,1.63
2022-10-22T16:34:02.979Z,2.10
2022-10-22T16:36:36.091Z,2.33
2022-10-22T16:39:07.655Z,2.27
2022-10-22T16:41:43.236Z,2.33
2022-10-22T16:44:16.746Z,2.40
2022-10-22T16:46:50.730Z,1.93
2022-10-22T16:49:21.744Z,2.30
2022-10-22T16:51:52.800Z,2.13
2022-10-22T16:54:25.227Z,3.07
2022-10-22T16:56:56.072Z,2.23
2022-10-22T16:59:29.483Z,2.20
2022-10-22T17:02:00.380Z,2.50
2022-10-22T17:04:31.154Z,2.60
2022-10-22T17:07:01.900Z,2.33
2022-10-22T17:09:32.657Z,2.70
2022-10-22T17:12:03.421Z,2.93
2022-10-22T17:14:36.960Z,2.60
2022-10-22T17:17:07.710Z,1.87
2022-10-22T17:19:38.894Z,2.70
2022-10-22T17:22:09.665Z,2.23
2022-10-22T17:24:43.909Z,2.00
2022-10-22T17:27:14.925Z,2.10
2022-10-22T17:29:50.189Z,1.97
2022-10-22T17:32:20.999Z,2.77
2022-10-22T17:34:56.260Z,2.47
2022-10-22T17:37:27.325Z,2.50
2022-10-22T17:39:58.461Z,2.53
2022-10-22T17:42:29.365Z,2.67
2022-10-22T17:45:02.785Z,2.80
2022-10-22T17:47:33.614Z,2.90
2022-10-22T17:50:04.338Z,3.97
2022-10-22T17:52:36.355Z,3.80
2022-10-22T17:55:08.306Z,3.53
2022-10-22T17:57:39.089Z,4.10
2022-10-22T18:02:53.843Z,3.70
2022-10-22T18:05:26.819Z,3.80
2022-10-22T18:07:58.487Z,3.87
2022-10-22T18:10:33.336Z,3.77
2022-10-22T18:13:04.099Z,4.43
2022-10-22T18:15:37.519Z,4.80
2022-10-22T18:18:08.915Z,4.20
2022-10-22T18:20:39.774Z,5.73
2022-10-22T18:23:18.276Z,5.57
2022-10-22T18:25:50.952Z,6.83
2022-10-22T18:28:24.783Z,6.97
2022-10-22T18:30:58.308Z,7.63
2022-10-22T18:33:31.511Z,7.87
2022-10-22T18:36:07.117Z,8.03
2022-10-22T18:38:38.807Z,7.40
2022-10-22T18:41:12.100Z,7.50
2022-10-22T18:43:42.946Z,7.47
2022-10-22T18:46:16.404Z,7.13
2022-10-22T18:48:47.332Z,5.90
2022-10-22T18:51:21.155Z,5.70
2022-10-22T18:54:05.549Z,4.47
2022-10-22T18:56:46.000Z,5.30
2022-10-22T18:59:20.755Z,5.90
2022-10-22T19:01:59.377Z,4.63
2022-10-22T19:04:36.679Z,5.07
2022-10-22T19:09:40.412Z,5.13
2022-10-22T19:12:15.053Z,4.20
2022-10-22T19:14:48.626Z,4.20
2022-10-22T19:17:24.392Z,4.40
2022-10-22T19:19:57.881Z,4.40
2022-10-22T19:22:29.965Z,4.20
2022-10-22T19:25:01.042Z,3.93
2022-10-22T19:27:32.203Z,4.67
2022-10-22T19:30:09.317Z,4.70
2022-10-22T19:32:43.071Z,4.97
2022-10-22T19:35:14.241Z,4.30
2022-10-22T19:37:48.296Z,4.27
2022-10-22T19:40:19.562Z,3.17
2022-10-22T19:42:53.511Z,3.27
2022-10-22T19:45:24.355Z,3.47
2022-10-22T19:47:57.751Z,3.20
2022-10-22T19:50:29.192Z,4.50
2022-10-22T19:53:01.490Z,4.03
2022-10-22T19:55:34.162Z,3.80
2022-10-22T19:58:05.054Z,3.47
2022-10-22T20:00:35.838Z,3.10
2022-10-22T20:03:12.296Z,3.33
2022-10-22T20:05:43.868Z,3.10
2022-10-22T20:08:14.710Z,3.50
2022-10-22T20:10:45.854Z,3.60
2022-10-22T20:13:18.268Z,3.60
2022-10-22T20:15:53.755Z,3.20
2022-10-22T20:18:27.347Z,4.33
2022-10-22T20:20:58.203Z,3.57
2022-10-22T20:23:29.211Z,3.80
2022-10-22T20:26:00.083Z,2.97
2022-10-22T20:28:31.248Z,3.50
2022-10-22T20:31:02.043Z,3.80
2022-10-22T20:33:35.884Z,3.23
2022-10-22T20:36:10.000Z,3.20
2022-10-22T20:38:43.353Z,3.90
2022-10-22T20:41:21.499Z,4.13
2022-10-22T20:43:54.558Z,5.63
2022-10-22T20:46:27.251Z,5.20
2022-10-22T20:49:04.344Z,6.27
2022-10-22T20:51:37.475Z,5.80
2022-10-22T20:54:09.190Z,34.23
2022-10-22T20:56:44.260Z,17.43
2022-10-22T20:59:15.200Z,10.37
2022-10-22T21:01:49.767Z,5.13
2022-10-22T21:04:27.232Z,4.87
2022-10-22T21:06:58.887Z,4.43
2022-10-22T21:09:29.715Z,3.87
2022-10-22T21:12:03.266Z,3.50
2022-10-22T21:14:34.931Z,3.40
2022-10-22T21:17:07.802Z,3.60
2022-10-22T21:19:41.297Z,3.47
2022-10-22T21:22:13.453Z,3.50
2022-10-22T21:24:44.444Z,2.80
2022-10-22T21:27:15.210Z,2.93
2022-10-22T21:29:45.961Z,3.07
2022-10-22T21:32:19.058Z,2.87
2022-10-22T21:34:52.939Z,3.00
2022-10-22T21:37:24.112Z,2.63
2022-10-22T21:39:54.963Z,3.57
2022-10-22T21:42:28.255Z,2.60
2022-10-22T21:44:59.101Z,2.47
2022-10-22T21:47:33.154Z,2.80
2022-10-22T21:50:06.831Z,2.70
2022-10-22T21:52:38.448Z,2.57
2022-10-22T21:55:09.809Z,2.73
2022-10-22T21:57:41.121Z,2.77
2022-10-22T22:00:13.984Z,2.37
2022-10-22T22:02:44.876Z,2.33
2022-10-22T22:05:20.714Z,2.57
2022-10-22T22:07:51.607Z,2.70
2022-10-22T22:10:22.346Z,3.07
2022-10-22T22:12:58.146Z,2.23
2022-10-22T22:15:28.771Z,2.40
2022-10-22T22:17:59.547Z,2.03
2022-10-22T22:20:32.954Z,2.03
2022-10-22T22:23:04.076Z,2.70
2022-10-22T22:25:37.549Z,2.60
2022-10-22T22:28:09.534Z,3.20
2022-10-22T22:30:40.267Z,3.30
2022-10-22T22:33:11.159Z,3.30
2022-10-22T22:35:44.474Z,3.17
2022-10-22T22:38:16.287Z,3.20
2022-10-22T22:40:47.128Z,3.30
2022-10-22T22:43:18.826Z,2.90
2022-10-22T22:45:49.592Z,2.80
2022-10-22T22:48:20.335Z,2.67
2022-10-22T22:50:53.727Z,2.70
2022-10-22T22:53:24.838Z,2.07
2022-10-22T22:56:05.318Z,2.57
2022-10-22T22:58:36.268Z,2.40
2022-10-22T23:01:16.154Z,2.57
2022-10-22T23:03:49.220Z,2.33
2022-10-22T23:06:22.826Z,2.70
2022-10-22T23:08:55.215Z,2.90
2022-10-22T23:11:35.412Z,2.30
2022-10-22T23:14:09.152Z,2.40
2022-10-22T23:16:48.612Z,2.60
2022-10-22T23:19:21.755Z,2.40
2022-10-22T23:21:57.391Z,2.27
2022-10-22T23:24:30.983Z,2.10
2022-10-22T23:27:04.230Z,2.47
2022-10-22T23:29:37.052Z,2.40
2022-10-22T23:32:15.257Z,2.07
2022-10-22T23:34:46.279Z,2.37
2022-10-22T23:37:19.700Z,3.43
2022-10-22T23:39:50.566Z,1.70
2022-10-22T23:42:22.274Z,1.90
2022-10-22T23:44:55.338Z,1.80
2022-10-22T23:47:26.491Z,2.00
2022-10-22T23:49:57.599Z,2.10
2022-10-22T23:52:32.035Z,1.77
2022-10-22T23:55:05.791Z,2.10
2022-10-22T23:57:36.803Z,2.03
